createdAt,value
2023-02-15T00:01:13.637Z,99.90
2023-02-15T00:03:41.030Z,99.90
2023-02-15T00:06:10.799Z,99.90
2023-02-15T00:08:37.947Z,99.90
2023-02-15T00:11:16.891Z,99.90
2023-02-15T00:13:46.311Z,99.90
2023-02-15T00:16:14.196Z,99.90
2023-02-15T00:18:45.775Z,99.90
2023-02-15T00:21:15.307Z,99.90
2023-02-15T00:23:42.320Z,99.90
2023-02-15T00:26:11.951Z,99.90
2023-02-15T00:28:39.769Z,99.90
2023-02-15T00:31:12.123Z,99.90
2023-02-15T00:33:40.451Z,99.90
2023-02-15T00:36:09.489Z,99.90
2023-02-15T00:38:41.314Z,99.90
2023-02-15T00:41:09.745Z,99.90
2023-02-15T00:43:37.858Z,99.90
2023-02-15T00:46:06.326Z,99.90
2023-02-15T00:48:33.707Z,99.90
2023-02-15T00:51:01.734Z,99.90
2023-02-15T00:53:30.084Z,99.90
2023-02-15T00:56:00.826Z,99.90
2023-02-15T00:58:28.109Z,99.90
2023-02-15T01:00:55.488Z,99.90
2023-02-15T01:03:25.158Z,99.90
2023-02-15T01:05:52.516Z,99.90
2023-02-15T01:08:19.569Z,99.90
2023-02-15T01:10:46.917Z,99.90
2023-02-15T01:13:15.640Z,99.90
2023-02-15T01:15:44.224Z,99.90
2023-02-15T01:18:12.652Z,99.90
2023-02-15T01:20:40.904Z,99.90
2023-02-15T01:23:11.126Z,99.90
2023-02-15T01:25:38.510Z,99.90
2023-02-15T01:28:06.155Z,99.90
2023-02-15T01:30:33.953Z,99.90
2023-02-15T01:33:01.336Z,99.90
2023-02-15T01:35:31.575Z,99.90
2023-02-15T01:38:01.335Z,99.90
2023-02-15T01:40:28.866Z,99.90
2023-02-15T01:42:58.257Z,99.90
2023-02-15T01:45:33.030Z,99.90
2023-02-15T01:48:00.084Z,99.90
2023-02-15T01:50:36.925Z,99.90
2023-02-15T01:53:23.112Z,99.90
2023-02-15T01:56:10.045Z,99.90
2023-02-15T01:58:38.096Z,99.90
2023-02-15T02:01:08.557Z,99.90
2023-02-15T02:04:18.452Z,99.90
2023-02-15T02:06:48.974Z,99.90
2023-02-15T02:09:16.221Z,99.90
2023-02-15T02:11:47.329Z,99.90
2023-02-15T02:14:14.964Z,99.90
2023-02-15T02:16:53.691Z,99.90
2023-02-15T02:19:35.842Z,99.90
2023-02-15T02:22:09.387Z,99.90
2023-02-15T02:24:39.241Z,99.90
2023-02-15T02:27:42.339Z,99.90
2023-02-15T02:30:34.224Z,99.90
2023-02-15T02:33:38.369Z,99.90
2023-02-15T02:36:28.423Z,99.90
2023-02-15T02:39:12.355Z,99.90
2023-02-15T02:41:45.667Z,99.90
2023-02-15T02:44:23.720Z,99.90
2023-02-15T02:47:00.319Z,99.90
2023-02-15T02:49:37.928Z,99.90
2023-02-15T02:52:41.822Z,99.90
2023-02-15T02:55:24.302Z,99.90
2023-02-15T02:57:57.170Z,99.90
2023-02-15T03:00:28.628Z,99.90
2023-02-15T03:03:03.615Z,99.90
2023-02-15T03:05:34.845Z,99.90
2023-02-15T03:08:04.906Z,99.90
2023-02-15T03:10:35.826Z,99.90
2023-02-15T03:13:03.741Z,99.90
2023-02-15T03:15:40.291Z,99.90
2023-02-15T03:18:12.273Z,99.90
2023-02-15T03:20:39.737Z,99.90
2023-02-15T03:23:17.747Z,99.90
2023-02-15T03:25:52.696Z,99.90
2023-02-15T03:28:27.954Z,99.90
2023-02-15T03:30:59.805Z,99.90
2023-02-15T03:33:29.851Z,99.90
2023-02-15T03:36:12.833Z,99.90
2023-02-15T03:38:55.686Z,99.90
2023-02-15T03:41:29.107Z,99.90
2023-02-15T03:44:01.847Z,99.90
2023-02-15T03:46:47.667Z,99.90
2023-02-15T03:49:53.246Z,99.90
2023-02-15T03:52:22.540Z,99.90
2023-02-15T03:54:50.880Z,99.90
2023-02-15T03:57:37.824Z,99.90
2023-02-15T04:00:13.179Z,99.90
2023-02-15T04:02:52.590Z,99.90
2023-02-15T04:05:19.983Z,99.90
2023-02-15T04:07:47.400Z,99.90
2023-02-15T04:10:17.008Z,99.90
2023-02-15T04:12:46.821Z,99.90
2023-02-15T04:15:16.564Z,99.90
2023-02-15T04:17:46.408Z,99.90
2023-02-15T04:20:16.036Z,99.90
2023-02-15T04:22:43.544Z,99.90
2023-02-15T04:25:10.670Z,99.90
2023-02-15T04:27:39.771Z,99.90
2023-02-15T04:30:07.762Z,99.90
2023-02-15T04:32:36.124Z,99.90
2023-02-15T04:35:06.085Z,99.90
2023-02-15T04:37:34.344Z,99.90
2023-02-15T04:40:01.825Z,99.90
2023-02-15T04:42:29.278Z,99.90
2023-02-15T04:44:56.313Z,99.90
2023-02-15T04:47:23.729Z,99.90
2023-02-15T04:49:52.980Z,99.90
2023-02-15T04:52:22.808Z,99.90
2023-02-15T04:54:49.903Z,99.90
2023-02-15T04:57:17.364Z,99.90
2023-02-15T04:59:46.703Z,99.90
2023-02-15T05:02:14.113Z,99.90
2023-02-15T05:04:41.247Z,99.90
2023-02-15T05:07:10.932Z,99.90
2023-02-15T05:09:40.407Z,99.90
2023-02-15T05:12:07.807Z,99.90
2023-02-15T05:14:37.098Z,99.90
2023-02-15T05:17:04.460Z,99.90
2023-02-15T05:19:31.714Z,99.90
2023-02-15T05:21:59.306Z,99.90
2023-02-15T05:24:26.355Z,99.90
2023-02-15T05:26:53.790Z,99.90
2023-02-15T05:29:23.318Z,99.90
2023-02-15T05:31:50.908Z,99.90
2023-02-15T05:34:18.054Z,99.90
2023-02-15T05:36:45.470Z,99.90
2023-02-15T05:39:12.505Z,99.90
2023-02-15T05:41:39.905Z,99.90
2023-02-15T05:44:09.159Z,99.90
2023-02-15T05:46:36.552Z,99.90
2023-02-15T05:49:06.539Z,99.90
2023-02-15T05:51:33.973Z,99.90
2023-02-15T05:54:03.441Z,99.90
2023-02-15T05:56:30.806Z,99.90
2023-02-15T05:58:57.923Z,99.90
2023-02-15T06:01:25.393Z,99.90
2023-02-15T06:03:53.088Z,99.90
2023-02-15T06:06:20.513Z,99.90
2023-02-15T06:08:49.934Z,99.90
2023-02-15T06:11:17.306Z,99.90
2023-02-15T06:13:44.386Z,99.90
2023-02-15T06:16:14.053Z,99.90
2023-02-15T06:18:41.232Z,99.90
2023-02-15T06:21:10.940Z,99.90
2023-02-15T06:23:40.496Z,99.90
2023-02-15T06:26:07.919Z,99.90
2023-02-15T06:28:35.040Z,99.90
2023-02-15T06:31:02.578Z,99.90
2023-02-15T06:33:29.769Z,99.90
2023-02-15T06:35:57.410Z,99.90
2023-02-15T06:38:24.497Z,99.90
2023-02-15T06:40:54.136Z,99.90
2023-02-15T06:43:21.252Z,99.90
2023-02-15T06:45:48.775Z,99.90
2023-02-15T06:48:15.820Z,99.90
2023-02-15T06:50:43.352Z,99.90
2023-02-15T06:53:10.418Z,99.90
2023-02-15T06:55:37.824Z,97.20
2023-02-15T06:58:04.976Z,94.60
2023-02-15T07:00:32.502Z,92.20
2023-02-15T07:03:02.500Z,89.00
2023-02-15T07:05:29.899Z,83.80
2023-02-15T07:07:57.119Z,83.70
2023-02-15T07:10:24.649Z,87.40
2023-02-15T07:12:54.298Z,85.80
2023-02-15T07:15:22.698Z,83.40
2023-02-15T07:17:50.313Z,78.30
2023-02-15T07:20:22.920Z,73.20
2023-02-15T07:22:52.799Z,67.60
2023-02-15T07:25:20.388Z,62.90
2023-02-15T07:27:49.879Z,60.40
2023-02-15T07:30:20.534Z,57.20
2023-02-15T07:32:50.252Z,54.60
2023-02-15T07:35:19.861Z,52.80
2023-02-15T07:37:46.874Z,50.80
2023-02-15T07:40:14.312Z,49.60
2023-02-15T07:42:41.340Z,48.70
2023-02-15T07:45:11.556Z,47.70
2023-02-15T07:47:41.130Z,47.90
2023-02-15T07:50:08.723Z,46.90
2023-02-15T07:52:35.752Z,46.40
2023-02-15T07:55:03.129Z,46.10
2023-02-15T07:57:30.148Z,45.60
2023-02-15T07:59:57.664Z,45.00
2023-02-15T08:02:24.753Z,44.00
2023-02-15T08:04:52.139Z,42.90
2023-02-15T08:07:19.257Z,42.00
2023-02-15T08:09:46.631Z,41.80
2023-02-15T08:12:16.126Z,41.50
2023-02-15T08:14:45.962Z,41.40
2023-02-15T08:17:15.344Z,40.60
2023-02-15T08:19:45.273Z,40.30
2023-02-15T08:22:17.745Z,40.80
2023-02-15T08:24:46.950Z,40.40
2023-02-15T08:27:14.032Z,40.00
2023-02-15T08:29:41.461Z,39.90
2023-02-15T08:32:13.161Z,39.80
2023-02-15T08:34:42.531Z,39.30
2023-02-15T08:37:12.610Z,39.30
2023-02-15T08:39:40.087Z,39.00
2023-02-15T08:42:07.239Z,39.00
2023-02-15T08:44:34.629Z,39.30
2023-02-15T08:47:01.874Z,39.00
2023-02-15T08:49:29.239Z,39.00
2023-02-15T08:51:58.869Z,38.70
2023-02-15T08:54:26.311Z,38.80
2023-02-15T08:56:53.474Z,38.50
2023-02-15T08:59:24.287Z,38.60
2023-02-15T09:01:53.086Z,38.40
2023-02-15T09:04:23.921Z,38.20
2023-02-15T09:06:53.507Z,38.00
2023-02-15T09:09:25.367Z,38.00
2023-02-15T09:11:57.672Z,37.50
2023-02-15T09:14:26.488Z,36.80
2023-02-15T09:16:54.106Z,36.90
2023-02-15T09:19:23.110Z,37.00
2023-02-15T09:21:50.338Z,36.80
2023-02-15T09:24:22.401Z,36.70
2023-02-15T09:26:49.613Z,36.40
2023-02-15T09:29:21.358Z,35.90
2023-02-15T09:31:50.461Z,36.10
2023-02-15T09:34:23.396Z,36.20
2023-02-15T09:36:51.386Z,36.90
2023-02-15T09:39:18.661Z,36.20
2023-02-15T09:42:04.197Z,36.00
2023-02-15T09:44:40.467Z,35.50
2023-02-15T09:47:22.421Z,35.30
2023-02-15T09:50:14.065Z,35.10
2023-02-15T09:53:08.811Z,35.10
2023-02-15T09:55:58.979Z,34.90
2023-02-15T09:58:41.046Z,34.90
2023-02-15T10:01:25.111Z,34.70
2023-02-15T10:04:12.521Z,34.60
2023-02-15T10:07:09.829Z,34.60
2023-02-15T10:09:55.747Z,34.40
2023-02-15T10:12:58.977Z,34.40
2023-02-15T10:15:53.744Z,34.70
2023-02-15T10:18:38.627Z,34.80
2023-02-15T10:21:49.865Z,34.70
2023-02-15T10:24:47.233Z,34.70
2023-02-15T10:27:24.794Z,34.30
2023-02-15T10:30:12.259Z,34.50
2023-02-15T10:33:07.293Z,34.20
2023-02-15T10:35:34.671Z,34.50
2023-02-15T10:38:30.601Z,34.80
2023-02-15T10:41:16.698Z,34.60
2023-02-15T10:43:55.645Z,34.80
2023-02-15T10:46:41.041Z,34.90
2023-02-15T10:49:47.568Z,35.50
2023-02-15T10:52:14.960Z,35.20
2023-02-15T10:55:00.767Z,35.40
2023-02-15T10:57:40.097Z,35.50
2023-02-15T11:00:14.720Z,35.30
2023-02-15T11:02:57.340Z,35.20
2023-02-15T11:05:58.441Z,35.20
2023-02-15T11:08:27.478Z,35.30
2023-02-15T11:11:03.679Z,35.50
2023-02-15T11:13:37.726Z,35.50
2023-02-15T11:16:12.747Z,35.90
2023-02-15T11:18:49.515Z,35.70
2023-02-15T11:21:24.789Z,35.60
2023-02-15T11:23:53.362Z,36.10
2023-02-15T11:26:42.256Z,36.20
2023-02-15T11:29:29.007Z,36.10
2023-02-15T11:32:03.507Z,36.50
2023-02-15T11:34:45.959Z,36.50
2023-02-15T11:37:21.778Z,36.50
2023-02-15T11:39:49.341Z,36.70
2023-02-15T11:42:21.857Z,36.80
2023-02-15T11:45:23.430Z,37.50
2023-02-15T11:47:50.765Z,39.30
2023-02-15T11:50:23.678Z,41.20
2023-02-15T11:53:01.828Z,44.10
2023-02-15T11:55:30.080Z,47.00
2023-02-15T11:58:15.294Z,49.30
2023-02-15T12:00:48.825Z,51.70
2023-02-15T12:03:28.817Z,53.60
2023-02-15T12:06:03.260Z,55.70
2023-02-15T12:08:45.567Z,57.50
2023-02-15T12:11:31.281Z,58.90
2023-02-15T12:14:02.839Z,60.60
2023-02-15T12:16:51.875Z,62.10
2023-02-15T12:19:21.693Z,63.40
2023-02-15T12:21:53.138Z,63.70
2023-02-15T12:24:29.710Z,65.40
2023-02-15T12:27:05.047Z,65.90
2023-02-15T12:29:40.808Z,66.70
2023-02-15T12:32:17.812Z,66.90
2023-02-15T12:34:46.167Z,67.20
2023-02-15T12:37:20.489Z,67.90
2023-02-15T12:40:02.139Z,68.30
2023-02-15T12:42:43.206Z,69.10
2023-02-15T12:45:30.717Z,70.00
2023-02-15T12:48:10.469Z,70.40
2023-02-15T12:50:37.801Z,70.90
2023-02-15T12:53:23.822Z,71.30
2023-02-15T12:55:54.763Z,71.80
2023-02-15T12:58:24.782Z,72.70
2023-02-15T13:01:10.246Z,73.70
2023-02-15T13:03:52.980Z,74.20
2023-02-15T13:06:21.607Z,74.70
2023-02-15T13:08:55.357Z,75.40
2023-02-15T13:11:33.726Z,75.80
2023-02-15T13:14:17.313Z,76.30
2023-02-15T13:16:46.741Z,77.10
2023-02-15T13:19:21.563Z,77.20
2023-02-15T13:21:51.764Z,78.10
2023-02-15T13:24:23.922Z,78.80
2023-02-15T13:26:51.850Z,79.60
2023-02-15T13:29:24.688Z,81.10
2023-02-15T13:31:54.395Z,82.30
2023-02-15T13:34:39.094Z,83.40
2023-02-15T13:37:16.206Z,84.70
2023-02-15T13:40:00.282Z,86.20
2023-02-15T13:42:52.029Z,86.70
2023-02-15T13:45:58.904Z,88.10
2023-02-15T13:48:48.462Z,89.30
2023-02-15T13:51:39.648Z,90.30
2023-02-15T13:54:07.006Z,90.60
2023-02-15T13:56:58.988Z,90.90
2023-02-15T13:59:44.254Z,91.10
2023-02-15T14:02:34.968Z,91.50
2023-02-15T14:05:23.497Z,91.50
2023-02-15T14:08:35.737Z,92.00
2023-02-15T14:11:34.102Z,92.30
2023-02-15T14:14:07.458Z,92.40
2023-02-15T14:17:06.121Z,92.60
2023-02-15T14:20:04.873Z,92.80
2023-02-15T14:22:45.362Z,93.00
2023-02-15T14:25:18.299Z,93.40
2023-02-15T14:28:11.210Z,93.50
2023-02-15T14:30:41.823Z,93.60
2023-02-15T14:33:14.849Z,93.70
2023-02-15T14:35:43.235Z,94.10
2023-02-15T14:38:22.206Z,94.50
2023-02-15T14:40:52.560Z,95.00
2023-02-15T14:43:25.574Z,95.30
2023-02-15T14:46:17.576Z,95.60
2023-02-15T14:48:51.609Z,96.10
2023-02-15T14:51:43.422Z,96.50
2023-02-15T14:54:31.211Z,96.70
2023-02-15T14:57:01.718Z,97.10
2023-02-15T14:59:51.653Z,97.30
2023-02-15T15:02:24.812Z,97.40
2023-02-15T15:05:01.365Z,97.20
2023-02-15T15:07:42.696Z,97.20
2023-02-15T15:10:15.881Z,97.90
2023-02-15T15:12:53.753Z,98.50
2023-02-15T15:15:30.096Z,99.90
2023-02-15T15:18:07.362Z,99.70
2023-02-15T15:20:50.907Z,99.90
2023-02-15T15:23:18.808Z,99.90
2023-02-15T15:26:19.837Z,99.90
2023-02-15T15:28:50.000Z,99.90
2023-02-15T15:31:23.245Z,99.90
2023-02-15T15:34:13.719Z,99.90
2023-02-15T15:37:04.638Z,99.90
2023-02-15T15:39:41.210Z,99.90
2023-02-15T15:42:26.707Z,99.90
2023-02-15T15:45:12.565Z,99.90
2023-02-15T15:47:46.828Z,99.90
2023-02-15T15:50:19.858Z,99.90
2023-02-15T15:52:55.516Z,99.90
2023-02-15T15:55:25.510Z,99.90
2023-02-15T15:58:02.017Z,99.90
2023-02-15T16:00:34.378Z,99.90
2023-02-15T16:03:01.864Z,99.90
2023-02-15T16:05:36.488Z,99.90
2023-02-15T16:08:03.669Z,99.90
2023-02-15T16:10:32.469Z,99.90
2023-02-15T16:12:59.771Z,99.90
2023-02-15T16:15:43.460Z,99.90
2023-02-15T16:18:21.188Z,99.90
2023-02-15T16:20:58.922Z,99.90
2023-02-15T16:23:38.179Z,99.90
2023-02-15T16:26:30.457Z,99.90
2023-02-15T16:28:57.735Z,99.90
2023-02-15T16:31:25.262Z,99.90
2023-02-15T16:34:00.176Z,99.90
2023-02-15T16:36:30.425Z,99.90
2023-02-15T16:38:57.541Z,99.90
2023-02-15T16:41:26.297Z,99.90
2023-02-15T16:43:55.289Z,99.90
2023-02-15T16:46:33.303Z,99.90
2023-02-15T16:49:13.293Z,99.90
2023-02-15T16:51:44.783Z,99.90
2023-02-15T16:54:23.855Z,99.90
2023-02-15T16:56:51.496Z,99.90
2023-02-15T16:59:49.367Z,99.90
2023-02-15T17:02:49.493Z,99.90
2023-02-15T17:05:18.589Z,99.90
2023-02-15T17:08:25.928Z,99.90
2023-02-15T17:11:07.733Z,99.90
2023-02-15T17:13:38.063Z,99.90
2023-02-15T17:16:05.487Z,99.90
2023-02-15T17:18:47.874Z,99.90
2023-02-15T17:21:20.102Z,99.90
2023-02-15T17:23:58.153Z,99.90
2023-02-15T17:26:30.000Z,99.90
2023-02-15T17:29:00.844Z,99.90
2023-02-15T17:31:32.366Z,99.90
2023-02-15T17:34:03.378Z,99.90
2023-02-15T17:36:32.131Z,99.90
2023-02-15T17:38:59.547Z,99.90
2023-02-15T17:41:29.718Z,99.90
2023-02-15T17:43:57.587Z,99.90
2023-02-15T17:46:30.372Z,99.90
2023-02-15T17:48:57.731Z,99.90
2023-02-15T17:51:24.951Z,99.90
2023-02-15T17:53:52.321Z,99.90
2023-02-15T17:56:21.937Z,99.90
2023-02-15T17:58:51.742Z,99.90
2023-02-15T18:01:21.185Z,99.90
2023-02-15T18:03:53.468Z,99.90
2023-02-15T18:06:20.612Z,99.90
2023-02-15T18:08:48.062Z,99.90
2023-02-15T18:11:19.596Z,99.90
2023-02-15T18:13:49.532Z,99.90
2023-02-15T18:16:22.829Z,99.90
2023-02-15T18:18:50.306Z,99.90
2023-02-15T18:21:17.370Z,99.90
2023-02-15T18:23:48.118Z,99.90
2023-02-15T18:26:22.009Z,99.90
2023-02-15T18:28:50.621Z,99.90
2023-02-15T18:31:19.134Z,99.90
2023-02-15T18:33:54.221Z,99.90
2023-02-15T18:36:27.893Z,99.90
2023-02-15T18:38:55.606Z,99.90
2023-02-15T18:41:23.058Z,99.90
2023-02-15T18:43:53.024Z,99.90
2023-02-15T18:46:20.877Z,99.90
2023-02-15T18:48:50.656Z,99.90
2023-02-15T18:51:24.628Z,99.90
2023-02-15T18:53:55.690Z,99.90
2023-02-15T18:56:23.702Z,99.90
2023-02-15T18:58:53.378Z,99.90
2023-02-15T19:01:21.899Z,99.90
2023-02-15T19:03:52.030Z,99.90
2023-02-15T19:06:21.706Z,99.90
2023-02-15T19:08:53.668Z,99.90
2023-02-15T19:11:30.288Z,99.90
2023-02-15T19:13:58.016Z,99.90
2023-02-15T19:16:34.399Z,99.90
2023-02-15T19:19:02.066Z,99.90
2023-02-15T19:21:31.845Z,99.90
2023-02-15T19:24:04.785Z,99.90
2023-02-15T19:26:44.943Z,99.90
2023-02-15T19:29:15.848Z,99.90
2023-02-15T19:31:43.095Z,99.90
2023-02-15T19:34:15.823Z,99.90
2023-02-15T19:36:50.142Z,99.90
2023-02-15T19:39:32.908Z,99.90
2023-02-15T19:42:00.192Z,99.90
2023-02-15T19:44:27.616Z,99.90
2023-02-15T19:46:56.934Z,99.90
2023-02-15T19:49:24.350Z,99.90
2023-02-15T19:51:51.501Z,99.90
2023-02-15T19:54:29.356Z,99.90
2023-02-15T19:56:57.290Z,99.90
2023-02-15T19:59:32.964Z,99.90
2023-02-15T20:02:00.314Z,99.90
2023-02-15T20:04:27.909Z,99.90
2023-02-15T20:07:01.552Z,99.90
2023-02-15T20:09:30.089Z,99.90
2023-02-15T20:11:57.160Z,99.90
2023-02-15T20:14:27.304Z,99.90
2023-02-15T20:16:56.942Z,99.90
2023-02-15T20:19:24.857Z,99.90
2023-02-15T20:21:52.016Z,99.90
2023-02-15T20:24:21.163Z,99.90
2023-02-15T20:26:48.386Z,99.90
2023-02-15T20:29:17.648Z,99.90
2023-02-15T20:31:46.504Z,99.90
2023-02-15T20:34:16.331Z,99.90
2023-02-15T20:36:47.911Z,99.90
2023-02-15T20:39:18.207Z,99.90
2023-02-15T20:41:47.900Z,99.90
2023-02-15T20:44:38.258Z,99.90
2023-02-15T20:47:05.341Z,99.90
2023-02-15T20:49:37.584Z,99.90
2023-02-15T20:52:18.620Z,99.90
2023-02-15T20:54:46.287Z,99.90
2023-02-15T20:57:13.479Z,99.90
2023-02-15T20:59:43.828Z,99.90
2023-02-15T21:02:19.882Z,99.90
2023-02-15T21:04:48.971Z,99.90
2023-02-15T21:07:20.971Z,99.90
2023-02-15T21:09:48.461Z,99.90
2023-02-15T21:12:18.632Z,99.90
2023-02-15T21:14:48.714Z,99.90
2023-02-15T21:17:16.616Z,99.90
2023-02-15T21:19:46.644Z,99.90
2023-02-15T21:22:15.443Z,99.90
2023-02-15T21:24:51.728Z,99.90
2023-02-15T21:27:19.068Z,99.90
2023-02-15T21:29:46.552Z,99.90
2023-02-15T21:32:16.452Z,99.90
2023-02-15T21:34:46.090Z,99.90
2023-02-15T21:37:33.102Z,99.90
2023-02-15T21:40:03.502Z,99.90
2023-02-15T21:42:30.682Z,99.90
2023-02-15T21:45:01.082Z,99.90
2023-02-15T21:47:30.607Z,99.90
2023-02-15T21:49:58.044Z,99.90
2023-02-15T21:52:27.357Z,99.90
2023-02-15T21:54:54.819Z,99.90
2023-02-15T21:57:26.341Z,99.90
2023-02-15T21:59:56.196Z,99.90
2023-02-15T22:02:31.159Z,99.90
2023-02-15T22:05:01.173Z,99.90
2023-02-15T22:07:30.457Z,99.90
2023-02-15T22:09:57.882Z,99.90
2023-02-15T22:12:24.953Z,99.90
2023-02-15T22:14:55.551Z,99.90
2023-02-15T22:17:25.968Z,99.90
2023-02-15T22:19:55.981Z,99.90
2023-02-15T22:22:26.019Z,99.90
2023-02-15T22:24:53.404Z,99.90
2023-02-15T22:27:23.986Z,99.90
2023-02-15T22:29:54.889Z,99.90
2023-02-15T22:32:24.588Z,99.90
2023-02-15T22:34:54.822Z,99.90
2023-02-15T22:37:22.146Z,99.90
2023-02-15T22:39:51.710Z,99.90
2023-02-15T22:42:27.241Z,99.90
2023-02-15T22:44:56.948Z,99.90
2023-02-15T22:47:27.493Z,99.90
2023-02-15T22:49:55.265Z,99.90
2023-02-15T22:52:22.607Z,99.90
2023-02-15T22:54:52.420Z,99.90
2023-02-15T22:57:31.811Z,99.90
2023-02-15T23:00:01.641Z,99.90
2023-02-15T23:02:28.915Z,99.90
2023-02-15T23:04:56.343Z,99.90
2023-02-15T23:07:23.426Z,99.90
2023-02-15T23:09:50.920Z,99.90
2023-02-15T23:12:30.496Z,99.90
2023-02-15T23:14:58.092Z,99.90
2023-02-15T23:17:25.189Z,99.90
2023-02-15T23:19:55.024Z,99.90
2023-02-15T23:22:22.112Z,99.90
2023-02-15T23:24:52.645Z,99.90
2023-02-15T23:27:19.897Z,99.90
2023-02-15T23:29:49.781Z,99.90
2023-02-15T23:32:17.004Z,99.90
2023-02-15T23:34:44.628Z,99.90
2023-02-15T23:37:15.561Z,99.90
2023-02-15T23:39:45.218Z,99.90
2023-02-15T23:42:21.225Z,99.90
2023-02-15T23:44:51.761Z,99.90
2023-02-15T23:47:20.267Z,99.90
2023-02-15T23:49:47.953Z,99.90
2023-02-15T23:52:15.007Z,99.90
2023-02-15T23:54:42.405Z,99.90
2023-02-15T23:57:11.380Z,99.90
2023-02-15T23:59:43.172Z,99.90
